CheckWX is a tool to help pilots better visualize weather data.  It is not intended as a substitute for an official pre-flight weather briefing.

01:51:46 UTC

LTFC TAF
Süleyman Demirel International Airport
Isparta, Turkey
TAF LTFC 182240Z 1900/1924 VRB02KT CAVOK BECMG 1906/1909 FEW035 BKN200 BECMG 1918/1921 CAVOK

Mar-19@
00:00 UTC

Mar-19 @ 00:00 UTC

Mar-19@
06:00 UTC

Mar-19 @ 06:00 UTC

TAF LTFC 182240Z 1900/1924 VRB02KT CAVOK
Wind
  • Variable at 2 KTS
Conditions
No significant weather
Cloud Levels
  • No significant clouds

Mar-19@
06:00 UTC

Mar-19 @ 06:00 UTC

Mar-19@
18:00 UTC

Mar-19 @ 18:00 UTC

BECMG 1906/1909 FEW035 BKN200

Becoming

Becoming Conditions expected by Tue, Mar 19, 2019 @ 09:00 UTC

Wind
  • Variable at 2 KTS
Conditions
No significant weather
Cloud Levels
  • Few at 3,500' AGL
  • Broken at 20,000' AGL

Mar-19@
18:00 UTC

Mar-19 @ 18:00 UTC

Mar-20@
00:00 UTC

Mar-20 @ 00:00 UTC

BECMG 1918/1921 CAVOK

Becoming

Becoming Conditions expected by Tue, Mar 19, 2019 @ 21:00 UTC

Wind
  • Variable at 2 KTS
Conditions
No significant weather
Cloud Levels
  • No significant clouds